Time;durP1;ratioP1;P1;durP2;ratioP2;P2;SDS_P1;SDS_P2;PMS_P1;PMS_P2;Temp;Humidity;BMP_temperature;BMP_pressure;BME280_temperature;BME280_humidity;BME280_pressure;Samples;Min_cycle;Max_cycle;Signal;HPM_P1;HPM_P2
2023/03/22 00:02:21;;;;;;;;;;;;;;;14.15;45.56;100361.19;5403991;32;34770;-71
2023/03/22 00:05:23;;;;;;;;;;;;;;;13.28;47.14;100358.72;5369507;32;34796;-72
2023/03/22 00:08:25;;;;;;;;;;;;;;;13.26;47.43;100366.69;5402194;32;35346;-62
2023/03/22 00:11:27;;;;;;;;;;;;;;;13.76;46.20;100362.37;5378901;32;35667;-72
2023/03/22 00:14:29;;;;;;;;;;;;;;;14.01;45.98;100361.94;5389377;32;35075;-72
2023/03/22 00:17:31;;;;;;;;;;;;;;;13.50;47.51;100367.25;5385543;32;37641;-73
2023/03/22 00:20:36;;;;;;;;;;;;;;;13.22;48.57;100353.75;5383558;32;34559;-71
2023/03/22 00:23:39;;;;;;;;;;;;;;;13.07;48.91;100359.75;5391583;32;45173;-62
2023/03/22 00:26:41;;;;;;;;;;;;;;;13.31;48.15;100337.44;5387030;32;34237;-61
2023/03/22 00:29:43;;;;;;;;;;;;;;;13.79;47.53;100357.81;5400506;32;34681;-73
2023/03/22 00:32:45;;;;;;;;;;;;;;;14.03;46.71;100355.63;5377431;32;35013;-61
2023/03/22 00:35:47;;;;;;;;;;;;;;;13.71;47.78;100356.50;5389207;32;34864;-61
2023/03/22 00:38:50;;;;;;;;;;;;;;;13.82;47.51;100364.72;5400395;32;34200;-61
2023/03/22 00:41:52;;;;;;;;;;;;;;;14.01;47.31;100346.94;5384720;32;34972;-61
2023/03/22 00:44:54;;;;;;;;;;;;;;;12.96;49.76;100360.31;5398777;32;34973;-60
2023/03/22 00:47:56;;;;;;;;;;;;;;;13.11;50.20;100363.94;5390883;32;34906;-71
2023/03/22 00:50:58;;;;;;;;;;;;;;;13.66;48.78;100361.19;5397726;32;37232;-70
2023/03/22 00:54:00;;;;;;;;;;;;;;;12.45;51.85;100354.81;5388125;32;34672;-73
2023/03/22 00:57:02;;;;;;;;;;;;;;;12.90;50.43;100358.81;5380175;32;34276;-61
2023/03/22 01:00:14;;;;;;;;;;;;;;;12.84;50.84;100356.47;5395925;32;35493;-72
2023/03/22 01:03:16;;;;;;;;;;;;;;;12.72;51.03;100354.44;5390362;32;44498;-69
2023/03/22 01:06:18;;;;;;;;;;;;;;;12.52;51.36;100344.00;5369340;32;34021;-72
2023/03/22 01:09:22;;;;;;;;;;;;;;;12.39;52.02;100354.25;5387406;32;34355;-74
2023/03/22 01:12:24;;;;;;;;;;;;;;;12.58;51.25;100354.25;5391705;32;36207;-61
2023/03/22 01:15:26;;;;;;;;;;;;;;;12.02;53.12;100349.84;5388024;32;35555;-63
2023/03/22 01:18:28;;;;;;;;;;;;;;;12.20;52.63;100343.72;5385572;32;35105;-72
2023/03/22 01:21:30;;;;;;;;;;;;;;;12.98;50.06;100347.88;5392226;32;34891;-61
2023/03/22 01:24:32;;;;;;;;;;;;;;;12.72;50.75;100339.47;5375281;32;34636;-73
2023/03/22 01:27:34;;;;;;;;;;;;;;;12.01;53.13;100330.53;5404091;32;34946;-72
2023/03/22 01:30:37;;;;;;;;;;;;;;;12.39;52.95;100328.75;5385236;32;34877;-60
2023/03/22 01:33:40;;;;;;;;;;;;;;;11.83;53.97;100326.09;5399213;32;45416;-73
2023/03/22 01:36:42;;;;;;;;;;;;;;;12.73;51.13;100313.94;5390389;32;36909;-74
2023/03/22 01:39:44;;;;;;;;;;;;;;;12.55;51.85;100315.69;5383799;32;36407;-73
2023/03/22 01:42:46;;;;;;;;;;;;;;;12.79;51.52;100326.81;5399103;32;35297;-62
2023/03/22 01:45:48;;;;;;;;;;;;;;;12.67;51.68;100324.78;5382958;32;34827;-71
2023/03/22 01:48:52;;;;;;;;;;;;;;;12.85;51.29;100328.31;5391303;32;34609;-73
2023/03/22 01:51:54;;;;;;;;;;;;;;;12.34;52.75;100333.38;5385842;32;37379;-61
2023/03/22 01:54:56;;;;;;;;;;;;;;;11.99;53.84;100337.66;5388613;32;34581;-63
2023/03/22 01:57:58;;;;;;;;;;;;;;;12.24;52.97;100329.50;5393296;32;35330;-61
2023/03/22 02:01:00;;;;;;;;;;;;;;;11.81;54.76;100334.09;5384735;32;34907;-74
2023/03/22 02:04:07;;;;;;;;;;;;;;;12.20;53.57;100334.03;5382103;32;34956;-71
2023/03/22 02:07:14;;;;;;;;;;;;;;;11.42;56.12;100344.56;5369461;32;43101;-61
2023/03/22 02:10:17;;;;;;;;;;;;;;;12.09;54.27;100338.09;5390495;32;34493;-73
2023/03/22 02:13:33;;;;;;;;;;;;;;;12.70;52.52;100340.47;5390819;32;34918;-61
2023/03/22 02:16:42;;;;;;;;;;;;;;;11.92;54.61;100345.00;5373710;32;35195;-72
2023/03/22 02:19:50;;;;;;;;;;;;;;;11.63;55.39;100338.34;5391291;32;46878;-61
2023/03/22 02:23:04;;;;;;;;;;;;;;;11.99;54.91;100344.72;5391038;32;34612;-72
2023/03/22 02:26:21;;;;;;;;;;;;;;;12.16;53.95;100343.00;5391421;32;34474;-61
2023/03/22 02:29:28;;;;;;;;;;;;;;;11.33;56.86;100348.44;5380077;32;34785;-71
2023/03/22 02:32:49;;;;;;;;;;;;;;;11.26;57.09;100339.09;5388607;32;33716;-74
2023/03/22 02:36:10;;;;;;;;;;;;;;;11.82;55.54;100343.69;5398180;32;35068;-72
2023/03/22 02:39:23;;;;;;;;;;;;;;;11.72;56.00;100345.00;5379753;32;46833;-73
2023/03/22 02:42:48;;;;;;;;;;;;;;;11.45;56.66;100354.94;5394155;32;34202;-61
2023/03/22 02:45:54;;;;;;;;;;;;;;;11.98;55.09;100345.63;5385686;32;35188;-73
2023/03/22 02:49:00;;;;;;;;;;;;;;;10.99;58.37;100361.28;5374938;32;34731;-61
2023/03/22 02:52:09;;;;;;;;;;;;;;;11.38;56.88;100359.63;5399992;32;35131;-61
2023/03/22 02:55:13;;;;;;;;;;;;;;;10.75;59.10;100366.63;5376319;32;45145;-72
2023/03/22 02:58:15;;;;;;;;;;;;;;;10.80;58.97;100358.56;5384874;32;35224;-71
2023/03/22 03:01:28;;;;;;;;;;;;;;;11.77;56.14;100366.69;5376736;32;34775;-61
2023/03/22 03:04:31;;;;;;;;;;;;;;;11.06;57.62;100363.59;5371725;32;34713;-72
2023/03/22 03:07:33;;;;;;;;;;;;;;;11.09;56.93;100358.22;5382045;32;35037;-60
2023/03/22 03:10:34;;;;;;;;;;;;;;;10.62;58.86;100378.53;5386164;32;34760;-61
2023/03/22 03:13:37;;;;;;;;;;;;;;;11.12;57.27;100362.50;5400091;32;34176;-72
2023/03/22 03:16:39;;;;;;;;;;;;;;;11.06;57.40;100357.47;5386734;32;46855;-60
2023/03/22 03:19:47;;;;;;;;;;;;;;;10.89;58.23;100355.56;5390828;32;35418;-60
2023/03/22 03:23:07;;;;;;;;;;;;;;;10.60;59.19;100361.12;5385801;32;34710;-71
2023/03/22 03:26:24;;;;;;;;;;;;;;;10.74;58.16;100357.03;5385827;32;46952;-71
2023/03/22 03:29:33;;;;;;;;;;;;;;;11.03;56.69;100342.69;5403174;32;34282;-60
2023/03/22 03:32:36;;;;;;;;;;;;;;;11.12;57.33;100360.72;5389397;32;36030;-60
2023/03/22 03:35:59;;;;;;;;;;;;;;;11.10;56.84;100357.31;5389423;32;42846;-70
2023/03/22 03:39:01;;;;;;;;;;;;;;;11.37;56.33;100363.16;5399545;32;37634;-61
2023/03/22 03:42:03;;;;;;;;;;;;;;;10.69;57.66;100368.63;5384369;32;35826;-62
2023/03/22 03:45:05;;;;;;;;;;;;;;;10.75;57.36;100368.38;5390439;32;34841;-61
2023/03/22 03:48:08;;;;;;;;;;;;;;;10.44;58.49;100371.41;5378416;32;34991;-60
2023/03/22 03:51:10;;;;;;;;;;;;;;;10.62;58.23;100370.66;5390583;32;44381;-73
2023/03/22 03:54:12;;;;;;;;;;;;;;;10.77;57.17;100370.06;5373514;32;35261;-73
2023/03/22 03:57:15;;;;;;;;;;;;;;;11.63;54.79;100358.56;5391484;32;35064;-61
2023/03/22 04:00:17;;;;;;;;;;;;;;;12.06;53.17;100380.38;5397313;32;35862;-72
2023/03/22 04:03:19;;;;;;;;;;;;;;;10.94;56.52;100373.75;5378555;32;34947;-60
2023/03/22 04:06:21;;;;;;;;;;;;;;;10.72;57.56;100368.53;5382991;32;35350;-70
2023/03/22 04:09:24;;;;;;;;;;;;;;;10.64;57.95;100368.00;5376474;32;35290;-60
2023/03/22 04:12:26;;;;;;;;;;;;;;;10.46;58.73;100366.94;5400967;32;35925;-71
2023/03/22 04:15:28;;;;;;;;;;;;;;;10.28;59.51;100369.34;5386021;32;35084;-71
2023/03/22 04:18:29;;;;;;;;;;;;;;;10.07;60.00;100357.00;5390946;32;35338;-60
2023/03/22 04:21:31;;;;;;;;;;;;;;;9.98;60.16;100366.09;5401748;32;35833;-60
2023/03/22 04:24:33;;;;;;;;;;;;;;;10.20;59.11;100353.00;5389167;32;34594;-72
2023/03/22 04:27:35;;;;;;;;;;;;;;;10.58;58.28;100369.94;5403413;32;34423;-61
2023/03/22 04:30:37;;;;;;;;;;;;;;;10.47;59.48;100376.53;5385135;32;34590;-61
2023/03/22 04:33:40;;;;;;;;;;;;;;;11.91;54.78;100371.38;5405865;32;45339;-61
2023/03/22 04:36:43;;;;;;;;;;;;;;;11.87;54.13;100351.38;5386819;32;34894;-72
2023/03/22 04:39:45;;;;;;;;;;;;;;;11.18;56.21;100380.66;5374055;32;34683;-60
2023/03/22 04:42:47;;;;;;;;;;;;;;;10.32;59.54;100383.22;5400489;32;34825;-72
2023/03/22 04:45:50;;;;;;;;;;;;;;;10.57;58.76;100381.38;5384070;32;34303;-60
2023/03/22 04:48:52;;;;;;;;;;;;;;;10.44;58.53;100379.28;5408540;32;35762;-61
2023/03/22 04:51:54;;;;;;;;;;;;;;;10.37;58.88;100383.03;5386583;32;37833;-74
2023/03/22 04:54:56;;;;;;;;;;;;;;;10.18;59.88;100377.59;5390506;32;35354;-61
2023/03/22 04:57:58;;;;;;;;;;;;;;;10.54;58.41;100375.34;5385599;32;35079;-61
2023/03/22 05:01:00;;;;;;;;;;;;;;;10.33;59.64;100390.19;5385999;32;34872;-61
2023/03/22 05:04:02;;;;;;;;;;;;;;;10.17;59.96;100391.62;5382270;32;34847;-73
2023/03/22 05:07:04;;;;;;;;;;;;;;;10.44;59.13;100393.28;5364855;32;34858;-72
2023/03/22 05:10:07;;;;;;;;;;;;;;;10.46;59.33;100382.69;5403654;32;34326;-61
2023/03/22 05:13:09;;;;;;;;;;;;;;;11.19;57.15;100387.62;5383546;32;44640;-60
2023/03/22 05:16:11;;;;;;;;;;;;;;;12.14;53.75;100399.34;5398628;32;34828;-60
2023/03/22 05:19:13;;;;;;;;;;;;;;;10.63;57.27;100410.97;5393473;32;35079;-60
2023/03/22 05:22:15;;;;;;;;;;;;;;;10.00;60.23;100414.13;5378598;32;34762;-71
2023/03/22 05:25:17;;;;;;;;;;;;;;;10.36;59.83;100407.59;5403687;32;35418;-72
2023/03/22 05:28:20;;;;;;;;;;;;;;;10.50;58.96;100411.44;5385303;32;34960;-61
2023/03/22 05:31:22;;;;;;;;;;;;;;;10.07;60.54;100413.91;5398813;32;35404;-72
2023/03/22 05:34:34;;;;;;;;;;;;;;;10.56;59.09;100403.31;5373819;32;34188;-71
2023/03/22 05:37:37;;;;;;;;;;;;;;;10.99;57.85;100408.62;5394131;32;32711;-72
2023/03/22 05:40:38;;;;;;;;;;;;;;;11.80;54.88;100407.84;5387391;32;45292;-61
2023/03/22 05:43:41;;;;;;;;;;;;;;;12.49;52.75;100413.50;5383680;32;34909;-71
2023/03/22 05:46:43;;;;;;;;;;;;;;;12.98;51.34;100412.03;5387677;32;35442;-62
2023/03/22 05:49:45;;;;;;;;;;;;;;;13.92;49.25;100410.00;5383275;32;34638;-61
2023/03/22 05:52:47;;;;;;;;;;;;;;;14.03;48.91;100412.91;5401519;32;34800;-62
2023/03/22 05:55:49;;;;;;;;;;;;;;;14.60;46.13;100405.44;5380097;32;34785;-71
2023/03/22 05:58:51;;;;;;;;;;;;;;;13.29;49.34;100421.13;5388741;32;35252;-72
2023/03/22 06:01:53;;;;;;;;;;;;;;;13.64;48.63;100431.69;5393039;32;35254;-61
2023/03/22 06:04:55;;;;;;;;;;;;;;;14.07;48.28;100425.03;5363690;32;34911;-69
2023/03/22 06:07:57;;;;;;;;;;;;;;;14.26;46.78;100433.72;5400745;32;35206;-61
2023/03/22 06:10:59;;;;;;;;;;;;;;;13.60;48.90;100438.09;5386986;32;35760;-62
2023/03/22 06:14:01;;;;;;;;;;;;;;;13.14;50.02;100432.44;5400812;32;35733;-61
2023/03/22 06:17:03;;;;;;;;;;;;;;;13.42;49.47;100443.34;5387839;32;35937;-61
2023/03/22 06:20:08;;;;;;;;;;;;;;;13.26;49.81;100439.75;5392042;32;35850;-73
2023/03/22 06:23:10;;;;;;;;;;;;;;;12.60;52.09;100424.41;5397347;32;45198;-62
2023/03/22 06:26:12;;;;;;;;;;;;;;;14.81;46.69;100421.91;5386594;32;34951;-73
2023/03/22 06:29:14;;;;;;;;;;;;;;;15.66;44.21;100410.84;5404461;32;34818;-62
2023/03/22 06:32:16;;;;;;;;;;;;;;;14.16;48.26;100443.03;5390073;32;34956;-72
2023/03/22 06:35:18;;;;;;;;;;;;;;;15.72;44.76;100429.03;5404754;32;34695;-71
2023/03/22 06:38:21;;;;;;;;;;;;;;;15.27;45.74;100437.84;5375447;32;35322;-74
2023/03/22 06:41:23;;;;;;;;;;;;;;;16.01;44.47;100445.81;5383422;32;35545;-62
2023/03/22 06:44:25;;;;;;;;;;;;;;;16.90;42.74;100425.22;5398687;32;35139;-63
2023/03/22 06:47:27;;;;;;;;;;;;;;;17.18;40.89;100428.72;5395405;32;34988;-72
2023/03/22 06:50:29;;;;;;;;;;;;;;;17.16;40.41;100428.84;5405213;32;35422;-62
2023/03/22 06:53:31;;;;;;;;;;;;;;;16.25;43.06;100444.31;5381483;32;35421;-61
2023/03/22 06:56:34;;;;;;;;;;;;;;;17.06;41.37;100444.50;5409282;32;34754;-75
2023/03/22 06:59:36;;;;;;;;;;;;;;;15.40;44.83;100452.94;5393481;32;34355;-74
2023/03/22 07:02:40;;;;;;;;;;;;;;;15.75;43.92;100447.37;5384912;32;46838;-76
2023/03/22 07:05:42;;;;;;;;;;;;;;;16.01;42.97;100459.06;5375284;32;34267;-63
2023/03/22 07:08:44;;;;;;;;;;;;;;;15.67;43.83;100453.16;5396811;32;34241;-84
2023/03/22 07:11:46;;;;;;;;;;;;;;;15.42;44.26;100455.50;5393222;32;34278;-62
2023/03/22 07:14:48;;;;;;;;;;;;;;;17.30;40.54;100442.03;5399240;32;35484;-70
2023/03/22 07:17:50;;;;;;;;;;;;;;;16.57;41.57;100446.78;5413058;32;34289;-71
2023/03/22 07:20:52;;;;;;;;;;;;;;;15.11;45.20;100456.38;5392141;32;34326;-79
2023/03/22 07:23:54;;;;;;;;;;;;;;;15.83;43.41;100457.53;5407014;32;34323;-81
2023/03/22 07:26:56;;;;;;;;;;;;;;;16.31;42.08;100466.12;5410182;32;34357;-65
2023/03/22 07:29:58;;;;;;;;;;;;;;;17.23;40.16;100462.00;5395929;32;36227;-73
2023/03/22 07:33:00;;;;;;;;;;;;;;;15.59;44.16;100467.78;5407882;32;35722;-74
2023/03/22 07:36:03;;;;;;;;;;;;;;;16.49;41.66;100460.53;5398494;32;35428;-74
2023/03/22 07:39:05;;;;;;;;;;;;;;;17.35;39.86;100449.72;5408885;32;35445;-72
2023/03/22 07:42:08;;;;;;;;;;;;;;;18.20;37.43;100437.72;5393126;32;34514;-64
2023/03/22 07:45:10;;;;;;;;;;;;;;;17.01;40.28;100453.75;5384981;32;45960;-70
2023/03/22 07:48:12;;;;;;;;;;;;;;;17.55;39.19;100457.22;5403265;32;34856;-71
2023/03/22 07:51:14;;;;;;;;;;;;;;;17.66;39.20;100458.31;5398683;32;34458;-74
2023/03/22 07:54:16;;;;;;;;;;;;;;;16.06;41.98;100456.16;5413036;32;35816;-61
2023/03/22 07:57:34;;;;;;;;;;;;;;;17.49;39.49;100456.78;5381382;32;35719;-70
2023/03/22 08:00:36;;;;;;;;;;;;;;;17.80;38.77;100450.28;5398662;32;36111;-79
2023/03/22 08:03:39;;;;;;;;;;;;;;;16.58;41.41;100459.09;5393689;32;44608;-62
2023/03/22 08:06:41;;;;;;;;;;;;;;;18.22;37.80;100454.44;5383042;32;34580;-61
2023/03/22 08:09:44;;;;;;;;;;;;;;;17.35;39.02;100439.09;5411979;32;33599;-78
2023/03/22 08:12:46;;;;;;;;;;;;;;;18.16;37.93;100435.38;5397505;32;35324;-65
2023/03/22 08:15:48;;;;;;;;;;;;;;;18.20;37.74;100431.56;5408828;32;34492;-65
2023/03/22 08:18:51;;;;;;;;;;;;;;;19.18;35.96;100425.34;5397910;32;35494;-74
2023/03/22 08:21:53;;;;;;;;;;;;;;;17.50;38.91;100445.19;5393638;32;35809;-75
2023/03/22 08:24:55;;;;;;;;;;;;;;;17.09;40.55;100446.13;5404080;32;33601;-62
2023/03/22 08:27:57;;;;;;;;;;;;;;;19.11;36.18;100434.78;5398695;32;34798;-61
2023/03/22 08:30:59;;;;;;;;;;;;;;;19.05;36.25;100443.22;5413716;32;33760;-65
2023/03/22 08:34:01;;;;;;;;;;;;;;;19.03;36.20;100437.16;5385773;32;36013;-62
2023/03/22 08:37:03;;;;;;;;;;;;;;;18.13;37.69;100455.09;5396354;32;34040;-63
2023/03/22 08:40:08;;;;;;;;;;;;;;;16.86;40.29;100462.66;5401422;32;34646;-64
2023/03/22 08:43:10;;;;;;;;;;;;;;;18.70;36.72;100462.62;5394415;32;45516;-70
2023/03/22 08:46:14;;;;;;;;;;;;;;;18.91;36.22;100455.72;5406881;32;34386;-62
2023/03/22 08:49:16;;;;;;;;;;;;;;;18.68;36.34;100469.88;5393766;32;34337;-70
2023/03/22 08:52:18;;;;;;;;;;;;;;;17.33;39.29;100460.44;5410923;32;35649;-72
2023/03/22 08:55:21;;;;;;;;;;;;;;;17.10;39.90;100466.41;5389949;32;35662;-71
2023/03/22 08:58:23;;;;;;;;;;;;;;;16.21;42.31;100460.50;5411766;32;35092;-69
2023/03/22 09:01:25;;;;;;;;;;;;;;;17.89;38.71;100432.84;5378548;32;33033;-81
2023/03/22 09:04:27;;;;;;;;;;;;;;;18.32;37.83;100452.84;5384527;32;36199;-65
2023/03/22 09:07:30;;;;;;;;;;;;;;;16.98;40.22;100453.91;5397263;32;34821;-74
2023/03/22 09:10:32;;;;;;;;;;;;;;;17.59;39.45;100453.41;5400933;32;35263;-79
2023/03/22 09:13:34;;;;;;;;;;;;;;;17.85;38.81;100461.47;5407720;32;34382;-63
2023/03/22 09:16:36;;;;;;;;;;;;;;;18.68;36.85;100456.56;5396936;32;34666;-63
2023/03/22 09:19:38;;;;;;;;;;;;;;;18.92;36.63;100446.78;5412984;32;35286;-81
2023/03/22 09:22:40;;;;;;;;;;;;;;;17.97;38.51;100457.09;5391472;32;44639;-64
2023/03/22 09:25:42;;;;;;;;;;;;;;;17.70;38.83;100455.31;5404637;32;34264;-68
2023/03/22 09:28:45;;;;;;;;;;;;;;;18.98;36.76;100432.16;5404557;32;34173;-68
2023/03/22 09:31:48;;;;;;;;;;;;;;;18.21;38.03;100449.22;5388795;32;34917;-62
2023/03/22 09:34:52;;;;;;;;;;;;;;;19.74;35.37;100434.44;5409153;32;34262;-68
2023/03/22 09:37:54;;;;;;;;;;;;;;;19.97;34.39;100434.50;5397032;32;34714;-66
2023/03/22 09:41:23;;;;;;;;;;;;;;;19.38;36.04;100435.38;5410732;32;34725;-73
2023/03/22 09:44:28;;;;;;;;;;;;;;;20.27;34.17;100436.59;5376209;32;33535;-78
2023/03/22 09:47:34;;;;;;;;;;;;;;;18.91;36.26;100433.56;5368832;32;35363;-75
2023/03/22 09:50:47;;;;;;;;;;;;;;;19.80;34.81;100433.13;5380418;32;45860;-70
2023/03/22 09:53:49;;;;;;;;;;;;;;;19.18;36.07;100426.22;5366552;32;34235;-77
2023/03/22 09:56:53;;;;;;;;;;;;;;;18.25;38.02;100432.94;5377839;32;35335;-63
2023/03/22 10:00:10;;;;;;;;;;;;;;;19.70;35.22;100422.31;5365093;32;34934;-64
2023/03/22 10:03:27;;;;;;;;;;;;;;;20.09;34.48;100427.34;5362752;32;44654;-62
2023/03/22 10:06:29;;;;;;;;;;;;;;;19.42;35.58;100430.69;5362118;32;34651;-77
2023/03/22 10:09:31;;;;;;;;;;;;;;;18.85;36.74;100424.22;5367454;32;34910;-68
2023/03/22 10:12:36;;;;;;;;;;;;;;;18.75;37.14;100427.69;5377150;32;34423;-73
2023/03/22 10:15:39;;;;;;;;;;;;;;;18.70;37.23;100428.00;5351678;32;34933;-63
2023/03/22 10:18:46;;;;;;;;;;;;;;;17.84;38.87;100425.19;5348758;32;44626;-63
2023/03/22 10:21:48;;;;;;;;;;;;;;;18.12;38.40;100432.97;5371202;32;34170;-75
2023/03/22 10:24:50;;;;;;;;;;;;;;;17.60;39.46;100430.34;5365985;32;35153;-67
2023/03/22 10:27:52;;;;;;;;;;;;;;;17.56;39.77;100434.16;5372826;32;34344;-76
2023/03/22 10:30:55;;;;;;;;;;;;;;;17.49;39.90;100420.41;5364226;32;34300;-77
2023/03/22 10:33:58;;;;;;;;;;;;;;;17.76;39.22;100423.03;5377302;32;34718;-65
2023/03/22 10:37:01;;;;;;;;;;;;;;;17.82;39.11;100416.44;5360921;32;36076;-74
2023/03/22 10:40:06;;;;;;;;;;;;;;;17.51;39.63;100425.62;5369629;32;36244;-72
2023/03/22 10:43:29;;;;;;;;;;;;;;;18.97;36.85;100425.12;5363918;32;43333;-76
2023/03/22 10:46:32;;;;;;;;;;;;;;;18.57;37.20;100420.03;5366743;32;37548;-71
2023/03/22 10:49:35;;;;;;;;;;;;;;;18.27;37.61;100428.34;5371648;32;36099;-65
2023/03/22 10:52:50;;;;;;;;;;;;;;;17.87;38.31;100430.28;5357149;32;34062;-65
2023/03/22 10:55:53;;;;;;;;;;;;;;;17.78;38.48;100426.47;5367016;32;37943;-64
2023/03/22 10:58:56;;;;;;;;;;;;;;;17.74;38.85;100429.44;5374547;32;34297;-70
2023/03/22 11:01:58;;;;;;;;;;;;;;;17.58;39.24;100424.25;5358306;32;34358;-68
2023/03/22 11:05:01;;;;;;;;;;;;;;;16.81;40.79;100401.94;5347935;32;34671;-72
2023/03/22 11:08:05;;;;;;;;;;;;;;;16.87;40.95;100421.91;5355736;32;34562;-79
2023/03/22 11:11:23;;;;;;;;;;;;;;;16.77;41.24;100414.53;5371940;32;34145;-65
2023/03/22 11:14:25;;;;;;;;;;;;;;;16.57;41.74;100393.72;5369600;32;35863;-72
2023/03/22 11:17:27;;;;;;;;;;;;;;;17.29;40.48;100402.31;5361528;32;34320;-66
2023/03/22 11:20:29;;;;;;;;;;;;;;;16.87;41.48;100390.91;5376113;32;35471;-63
2023/03/22 11:23:32;;;;;;;;;;;;;;;16.30;42.95;100391.00;5359438;32;35463;-71
2023/03/22 11:26:35;;;;;;;;;;;;;;;16.52;42.56;100390.50;5374839;32;34291;-83
2023/03/22 11:29:46;;;;;;;;;;;;;;;16.66;41.99;100387.81;5359500;32;44529;-73
2023/03/22 11:32:48;;;;;;;;;;;;;;;16.33;42.69;100387.31;5360748;32;35380;-69
2023/03/22 11:35:54;;;;;;;;;;;;;;;16.56;42.37;100378.75;5368677;32;34396;-63
2023/03/22 11:38:58;;;;;;;;;;;;;;;16.49;42.46;100380.09;5362424;32;34205;-74
2023/03/22 11:42:02;;;;;;;;;;;;;;;16.87;41.63;100380.28;5366675;32;35645;-61
2023/03/22 11:45:05;;;;;;;;;;;;;;;16.99;41.34;100370.66;5360219;32;34560;-74
2023/03/22 11:48:08;;;;;;;;;;;;;;;16.90;41.59;100368.63;5361963;32;34606;-58
2023/03/22 11:51:11;;;;;;;;;;;;;;;16.95;41.44;100363.88;5364037;32;43331;-72
2023/03/22 11:54:41;;;;;;;;;;;;;;;16.57;41.42;100368.97;5360936;32;34453;-61
2023/03/22 11:57:43;;;;;;;;;;;;;;;16.64;41.81;100360.53;5374282;32;44685;-65
2023/03/22 12:00:45;;;;;;;;;;;;;;;17.17;40.79;100356.16;5355698;32;35814;-72
2023/03/22 12:03:48;;;;;;;;;;;;;;;17.58;39.48;100366.66;5367899;32;33103;-66
2023/03/22 12:06:52;;;;;;;;;;;;;;;17.03;40.48;100364.22;5354464;32;35323;-60
2023/03/22 12:10:07;;;;;;;;;;;;;;;16.84;41.17;100369.03;5369694;32;33557;-67
2023/03/22 12:13:12;;;;;;;;;;;;;;;17.07;40.89;100365.72;5371853;32;43637;-61
2023/03/22 12:16:20;;;;;;;;;;;;;;;17.40;39.99;100365.25;5369220;32;34369;-67
2023/03/22 12:19:34;;;;;;;;;;;;;;;18.79;37.26;100358.09;5356868;32;36447;-71
2023/03/22 12:22:39;;;;;;;;;;;;;;;19.78;35.40;100349.75;5359060;32;34346;-73
2023/03/22 12:25:43;;;;;;;;;;;;;;;20.14;34.26;100355.81;5360615;32;44482;-63
2023/03/22 12:29:05;;;;;;;;;;;;;;;19.92;34.33;100357.50;5352819;32;33963;-64
2023/03/22 12:32:37;;;;;;;;;;;;;;;19.33;35.10;100346.09;5365833;32;34130;-60
2023/03/22 12:35:41;;;;;;;;;;;;;;;19.56;35.09;100353.16;5370626;32;35224;-66
2023/03/22 12:38:54;;;;;;;;;;;;;;;19.72;34.73;100351.06;5362921;32;34438;-70
2023/03/22 12:41:59;;;;;;;;;;;;;;;19.82;34.31;100345.84;5364978;32;32853;-69
2023/03/22 12:45:02;;;;;;;;;;;;;;;20.87;32.13;100344.53;5381438;32;34442;-70
2023/03/22 12:48:20;;;;;;;;;;;;;;;20.44;32.88;100341.84;5355605;32;35311;-68
2023/03/22 12:51:22;;;;;;;;;;;;;;;20.34;32.96;100339.03;5344010;32;34211;-71
2023/03/22 12:54:24;;;;;;;;;;;;;;;20.00;33.11;100335.56;5366439;32;34211;-64
2023/03/22 12:57:26;;;;;;;;;;;;;;;19.52;33.92;100338.41;5373131;32;34161;-63
2023/03/22 13:00:33;;;;;;;;;;;;;;;19.78;33.56;100315.06;5367940;32;34012;-66
2023/03/22 13:03:36;;;;;;;;;;;;;;;19.42;33.96;100337.41;5347984;32;34375;-71
2023/03/22 13:06:44;;;;;;;;;;;;;;;19.94;32.69;100323.56;5364717;32;47375;-80
2023/03/22 13:09:47;;;;;;;;;;;;;;;20.21;32.40;100316.97;5365626;32;35525;-81
2023/03/22 13:13:09;;;;;;;;;;;;;;;20.31;31.87;100304.59;5379536;32;34070;-61
2023/03/22 13:16:11;;;;;;;;;;;;;;;20.39;32.21;100298.63;5368126;32;44475;-62
2023/03/22 13:19:21;;;;;;;;;;;;;;;21.08;30.13;100299.16;5361175;32;34404;-77
2023/03/22 13:22:26;;;;;;;;;;;;;;;21.64;29.49;100296.16;5374861;32;34295;-77
2023/03/22 13:25:29;;;;;;;;;;;;;;;22.66;27.19;100289.72;5369089;32;34298;-81
2023/03/22 13:28:36;;;;;;;;;;;;;;;21.22;29.27;100295.31;5386777;32;34320;-66
2023/03/22 13:31:46;;;;;;;;;;;;;;;22.77;26.42;100291.41;5364281;32;36628;-60
2023/03/22 13:34:49;;;;;;;;;;;;;;;22.58;27.07;100286.88;5368975;32;33261;-62
2023/03/22 13:37:51;;;;;;;;;;;;;;;23.11;26.21;100282.97;5373341;32;35464;-68
2023/03/22 13:40:59;;;;;;;;;;;;;;;22.19;27.51;100287.81;5363972;32;35397;-61
2023/03/22 13:44:02;;;;;;;;;;;;;;;22.04;27.44;100287.31;5380239;32;35581;-81
2023/03/22 13:47:08;;;;;;;;;;;;;;;21.66;28.11;100286.19;5364607;32;33462;-59
2023/03/22 13:50:10;;;;;;;;;;;;;;;20.60;29.54;100291.56;5380978;32;45159;-59
2023/03/22 13:53:33;;;;;;;;;;;;;;;20.68;29.44;100283.78;5365238;32;35827;-61
2023/03/22 13:56:51;;;;;;;;;;;;;;;21.65;27.89;100278.28;5370507;32;35511;-70
2023/03/22 14:00:00;;;;;;;;;;;;;;;21.13;28.74;100282.75;5378730;32;34198;-82
2023/03/22 14:03:20;;;;;;;;;;;;;;;21.58;27.57;100270.81;5368883;32;44640;-64
2023/03/22 14:06:23;;;;;;;;;;;;;;;20.78;28.78;100266.00;5357634;32;34060;-60
2023/03/22 14:09:28;;;;;;;;;;;;;;;21.02;27.91;100271.13;5340920;32;1046021;-61
2023/03/22 14:12:31;;;;;;;;;;;;;;;20.82;28.41;100261.28;5361685;32;34778;-64
2023/03/22 14:15:34;;;;;;;;;;;;;;;19.75;29.86;100241.47;5378891;32;36356;-71
2023/03/22 14:18:36;;;;;;;;;;;;;;;19.44;30.57;100256.34;5365546;32;34219;-65
2023/03/22 14:21:38;;;;;;;;;;;;;;;20.08;30.06;100268.25;5366182;32;34166;-74
2023/03/22 14:24:40;;;;;;;;;;;;;;;19.78;30.03;100244.91;5362521;32;45991;-59
2023/03/22 14:27:41;;;;;;;;;;;;;;;20.21;29.66;100252.94;5367368;32;35646;-77
2023/03/22 14:30:41;;;;;;;;;;;;;;;20.41;28.91;100246.81;5369970;32;35102;-62
2023/03/22 14:33:44;;;;;;;;;;;;;;;20.44;28.89;100235.91;5359866;32;35449;-65
2023/03/22 14:36:48;;;;;;;;;;;;;;;20.67;28.61;100243.84;5383227;32;35649;-64
2023/03/22 14:39:49;;;;;;;;;;;;;;;20.79;28.71;100250.81;5364642;32;34862;-71
2023/03/22 14:42:50;;;;;;;;;;;;;;;20.08;30.13;100247.75;5375663;32;35025;-70
2023/03/22 14:46:05;;;;;;;;;;;;;;;19.78;31.00;100243.06;5359100;32;34433;-65
2023/03/22 14:49:13;;;;;;;;;;;;;;;20.44;30.28;100246.56;5368892;32;34263;-70
2023/03/22 14:52:15;;;;;;;;;;;;;;;20.78;29.79;100249.12;5366884;32;45413;-63
2023/03/22 14:55:17;;;;;;;;;;;;;;;20.38;30.51;100243.56;5358965;32;34310;-72
2023/03/22 14:58:18;;;;;;;;;;;;;;;20.05;30.66;100241.84;5375673;32;34618;-69
2023/03/22 15:01:22;;;;;;;;;;;;;;;20.02;30.83;100235.75;5362054;32;34379;-69
2023/03/22 15:04:23;;;;;;;;;;;;;;;20.01;31.37;100238.56;5352302;32;37297;-72
2023/03/22 15:07:24;;;;;;;;;;;;;;;19.90;31.76;100233.22;5355843;32;34709;-61
2023/03/22 15:10:26;;;;;;;;;;;;;;;19.48;32.73;100232.97;5364452;32;35937;-74
2023/03/22 15:13:27;;;;;;;;;;;;;;;19.51;32.93;100229.22;5358760;32;34276;-64
2023/03/22 15:16:30;;;;;;;;;;;;;;;19.91;32.43;100226.94;5352903;32;35895;-64
2023/03/22 15:19:36;;;;;;;;;;;;;;;19.73;32.76;100231.91;5378302;32;33673;-72
2023/03/22 15:22:37;;;;;;;;;;;;;;;20.03;32.07;100225.97;5354699;32;34754;-64
2023/03/22 15:25:38;;;;;;;;;;;;;;;19.57;32.95;100223.41;5371717;32;34152;-74
2023/03/22 15:28:42;;;;;;;;;;;;;;;20.17;31.87;100219.50;5360556;32;45103;-63
2023/03/22 15:31:44;;;;;;;;;;;;;;;19.74;32.85;100213.13;5337740;32;35331;-75
2023/03/22 15:34:46;;;;;;;;;;;;;;;19.73;32.88;100213.25;5354108;32;35088;-62
2023/03/22 15:37:51;;;;;;;;;;;;;;;19.35;33.73;100214.44;5352621;32;34779;-75
2023/03/22 15:40:52;;;;;;;;;;;;;;;18.62;35.21;100223.56;5375591;32;35279;-63
2023/03/22 15:44:03;;;;;;;;;;;;;;;19.74;33.53;100215.78;5350303;32;34939;-75
2023/03/22 15:47:04;;;;;;;;;;;;;;;20.33;32.49;100203.91;5359595;32;35361;-77